createdAt,value
2019-02-04T00:02:19.309Z,101688.00
2019-02-04T00:04:49.574Z,101702.00
2019-02-04T00:07:20.182Z,101703.00
2019-02-04T00:09:50.518Z,101697.00
2019-02-04T00:12:21.080Z,101688.00
2019-02-04T00:14:51.378Z,101682.00
2019-02-04T00:17:21.592Z,101690.00
2019-02-04T00:19:51.888Z,101692.00
2019-02-04T00:22:22.303Z,101683.00
2019-02-04T00:24:52.728Z,101693.00
2019-02-04T00:27:23.023Z,101681.00
2019-02-04T00:29:53.395Z,101682.00
2019-02-04T00:32:23.763Z,101686.00
2019-02-04T00:34:54.098Z,101699.00
2019-02-04T00:37:24.390Z,101709.00
2019-02-04T00:39:54.811Z,101701.00
2019-02-04T00:42:25.201Z,101711.00
2019-02-04T00:44:55.556Z,101706.00
2019-02-04T00:47:25.974Z,101707.00
2019-02-04T00:49:56.339Z,101714.00
2019-02-04T00:52:26.669Z,101708.00
2019-02-04T00:54:57.128Z,101710.00
2019-02-04T00:57:27.668Z,101705.00
2019-02-04T00:59:58.032Z,101716.00
2019-02-04T01:02:28.383Z,101711.00
2019-02-04T01:04:58.878Z,101717.00
2019-02-04T01:07:29.307Z,101725.00
2019-02-04T01:09:59.560Z,101731.00
2019-02-04T01:12:30.106Z,101732.00
2019-02-04T01:15:00.496Z,101733.00
2019-02-04T01:17:30.862Z,101726.00
2019-02-04T01:20:01.258Z,101728.00
2019-02-04T01:22:31.696Z,101739.00
2019-02-04T01:25:02.051Z,101735.00
2019-02-04T01:27:32.909Z,101741.00
2019-02-04T01:30:03.314Z,101754.00
2019-02-04T01:32:33.636Z,101740.00
2019-02-04T01:35:04.246Z,101741.00
2019-02-04T01:37:34.620Z,101753.00
2019-02-04T01:40:07.705Z,101755.00
2019-02-04T01:42:38.042Z,101755.00
2019-02-04T01:45:08.551Z,101757.00
2019-02-04T01:47:38.860Z,101767.00
2019-02-04T01:50:11.184Z,101773.00
2019-02-04T01:52:41.912Z,101770.00
2019-02-04T01:55:12.347Z,101766.00
2019-02-04T01:57:42.712Z,101772.00
2019-02-04T02:00:16.158Z,101776.00
2019-02-04T02:02:46.576Z,101785.00
2019-02-04T02:05:17.260Z,101786.00
2019-02-04T02:07:47.594Z,101785.00
2019-02-04T02:10:20.069Z,101784.00
2019-02-04T02:12:51.463Z,101789.00
2019-02-04T02:15:21.923Z,101794.00
2019-02-04T02:17:52.405Z,101791.00
2019-02-04T02:20:25.709Z,101794.00
2019-02-04T02:22:56.117Z,101788.00
2019-02-04T02:25:26.553Z,101792.00
2019-02-04T02:27:56.914Z,101800.00
2019-02-04T02:30:30.386Z,101809.00
2019-02-04T02:33:00.966Z,101787.00
2019-02-04T02:35:31.264Z,101808.00
2019-02-04T02:38:01.588Z,101811.00
2019-02-04T02:40:34.082Z,101802.00
2019-02-04T02:43:05.462Z,101803.00
2019-02-04T02:45:36.058Z,101807.00
2019-02-04T02:48:06.410Z,101816.00
2019-02-04T02:50:36.706Z,101808.00
2019-02-04T02:53:07.099Z,101813.00
2019-02-04T02:55:37.709Z,101808.00
2019-02-04T02:58:08.028Z,101808.00
2019-02-04T03:00:38.350Z,101817.00
2019-02-04T03:03:08.748Z,101818.00
2019-02-04T03:05:39.020Z,101817.00
2019-02-04T03:08:09.489Z,101822.00
2019-02-04T03:10:39.806Z,101825.00
2019-02-04T03:13:10.323Z,101825.00
2019-02-04T03:15:41.151Z,101838.00
2019-02-04T03:18:11.632Z,101840.00
2019-02-04T03:20:41.961Z,101825.00
2019-02-04T03:23:12.498Z,101808.00
2019-02-04T03:25:42.833Z,101820.00
2019-02-04T03:28:13.332Z,101828.00
2019-02-04T03:30:43.747Z,101822.00
2019-02-04T03:33:14.136Z,101822.00
2019-02-04T03:35:45.994Z,101825.00
2019-02-04T03:38:16.310Z,101818.00
2019-02-04T03:40:46.651Z,101817.00
2019-02-04T03:43:16.935Z,101823.00
2019-02-04T03:45:47.267Z,101818.00
2019-02-04T03:48:17.576Z,101806.00
2019-02-04T03:50:47.889Z,101825.00
2019-02-04T03:53:18.174Z,101828.00
2019-02-04T03:55:48.439Z,101827.00
2019-02-04T03:58:18.657Z,101824.00
2019-02-04T04:00:49.049Z,101823.00
2019-02-04T04:03:19.592Z,101832.00
2019-02-04T04:05:50.123Z,101840.00
2019-02-04T04:08:20.543Z,101835.00
2019-02-04T04:10:50.771Z,101826.00
2019-02-04T04:13:21.177Z,101830.00
2019-02-04T04:15:51.483Z,101845.00
2019-02-04T04:18:21.876Z,101830.00
2019-02-04T04:20:52.219Z,101832.00
2019-02-04T04:23:22.503Z,101839.00
2019-02-04T04:25:52.798Z,101835.00
2019-02-04T04:28:23.295Z,101829.00
2019-02-04T04:30:53.697Z,101835.00
2019-02-04T04:33:23.998Z,101838.00
2019-02-04T04:35:54.325Z,101837.00
2019-02-04T04:38:24.728Z,101848.00
2019-02-04T04:40:55.187Z,101839.00
2019-02-04T04:43:25.451Z,101834.00
2019-02-04T04:45:56.083Z,101837.00
2019-02-04T04:48:26.938Z,101852.00
2019-02-04T04:50:57.429Z,101830.00
2019-02-04T04:53:27.709Z,101833.00
2019-02-04T04:55:58.082Z,101835.00
2019-02-04T04:58:28.462Z,101840.00
2019-02-04T05:00:58.801Z,101845.00
2019-02-04T05:03:29.225Z,101839.00
2019-02-04T05:05:59.613Z,101846.00
2019-02-04T05:08:30.531Z,101852.00
2019-02-04T05:11:01.049Z,101852.00
2019-02-04T05:13:31.699Z,101839.00
2019-02-04T05:16:02.085Z,101844.00
2019-02-04T05:18:38.164Z,101853.00
2019-02-04T05:21:04.571Z,101853.00
2019-02-04T05:23:34.969Z,101849.00
2019-02-04T05:26:05.394Z,101855.00
2019-02-04T05:28:35.739Z,101846.00
2019-02-04T05:31:06.083Z,101850.00
2019-02-04T05:33:36.745Z,101845.00
2019-02-04T05:36:07.070Z,101846.00
2019-02-04T05:38:37.436Z,101846.00
2019-02-04T05:41:07.746Z,101849.00
2019-02-04T05:43:38.100Z,101850.00
2019-02-04T05:46:08.409Z,101842.00
2019-02-04T05:48:48.768Z,101849.00
2019-02-04T05:51:10.697Z,101860.00
2019-02-04T05:53:41.011Z,101870.00
2019-02-04T05:56:11.258Z,101853.00
2019-02-04T05:58:41.574Z,101851.00
2019-02-04T06:01:12.029Z,101862.00
2019-02-04T06:03:42.428Z,101859.00
2019-02-04T06:06:12.763Z,101849.00
2019-02-04T06:08:43.059Z,101845.00
2019-02-04T06:11:13.296Z,101870.00
2019-02-04T06:13:44.015Z,101854.00
2019-02-04T06:16:14.263Z,101855.00
2019-02-04T06:18:44.541Z,101869.00
2019-02-04T06:21:14.793Z,101853.00
2019-02-04T06:23:44.995Z,101851.00
2019-02-04T06:26:15.162Z,101853.00
2019-02-04T06:28:45.344Z,101860.00
2019-02-04T06:31:15.576Z,101869.00
2019-02-04T06:33:45.876Z,101870.00
2019-02-04T06:36:16.123Z,101869.00
2019-02-04T06:38:46.398Z,101871.00
2019-02-04T06:41:16.886Z,101876.00
2019-02-04T06:43:47.175Z,101876.00
2019-02-04T06:46:17.556Z,101884.00
2019-02-04T06:48:47.857Z,101895.00
2019-02-04T06:51:18.309Z,101890.00
2019-02-04T06:53:49.550Z,101890.00
2019-02-04T06:56:19.917Z,101896.00
2019-02-04T06:58:50.355Z,101891.00
2019-02-04T07:01:20.806Z,101902.00
2019-02-04T07:03:51.223Z,101891.00
2019-02-04T07:06:21.730Z,101889.00
2019-02-04T07:08:52.151Z,101900.00
2019-02-04T07:11:23.023Z,101904.00
2019-02-04T07:13:55.945Z,101904.00
2019-02-04T07:16:26.544Z,101904.00
2019-02-04T07:18:57.203Z,101905.00
2019-02-04T07:21:27.979Z,101903.00
2019-02-04T07:23:58.905Z,101901.00
2019-02-04T07:26:30.061Z,101900.00
2019-02-04T07:29:00.848Z,101906.00
2019-02-04T07:31:31.344Z,101902.00
2019-02-04T07:34:02.240Z,101892.00
2019-02-04T07:36:33.392Z,101901.00
2019-02-04T07:39:05.479Z,101892.00
2019-02-04T07:41:36.271Z,101895.00
2019-02-04T07:44:07.336Z,101903.00
2019-02-04T07:46:38.171Z,101903.00
2019-02-04T07:49:11.309Z,101904.00
2019-02-04T07:51:42.076Z,101891.00
2019-02-04T07:54:12.818Z,101896.00
2019-02-04T07:56:43.623Z,101893.00
2019-02-04T07:59:14.542Z,101898.00
2019-02-04T08:01:45.433Z,101890.00
2019-02-04T08:04:15.949Z,101896.00
2019-02-04T08:06:46.687Z,101890.00
2019-02-04T08:09:17.555Z,101894.00
2019-02-04T08:11:48.352Z,101884.00
2019-02-04T08:14:18.900Z,101889.00
2019-02-04T08:16:49.564Z,101889.00
2019-02-04T08:19:20.194Z,101891.00
2019-02-04T08:21:50.822Z,101870.00
2019-02-04T08:24:21.133Z,101877.00
2019-02-04T08:26:51.906Z,101870.00
2019-02-04T08:29:22.801Z,101877.00
2019-02-04T08:31:53.436Z,101884.00
2019-02-04T08:34:24.214Z,101870.00
2019-02-04T08:36:54.952Z,101875.00
2019-02-04T08:39:27.793Z,101859.00
2019-02-04T08:41:58.659Z,101848.00
2019-02-04T08:44:29.685Z,101852.00
2019-02-04T08:47:00.558Z,101858.00
2019-02-04T08:49:31.268Z,101842.00
2019-02-04T08:52:02.443Z,101858.00
2019-02-04T08:54:32.992Z,101851.00
2019-02-04T08:57:03.524Z,101844.00
2019-02-04T08:59:34.594Z,101836.00
2019-02-04T09:02:05.600Z,101837.00
2019-02-04T09:04:37.298Z,101841.00
2019-02-04T09:07:08.395Z,101836.00
2019-02-04T09:09:39.161Z,101837.00
2019-02-04T09:12:12.099Z,101829.00
2019-02-04T09:14:42.861Z,101828.00
2019-02-04T09:17:13.578Z,101839.00
2019-02-04T09:19:44.278Z,101829.00
2019-02-04T09:22:14.710Z,101828.00
2019-02-04T09:24:45.202Z,101834.00
2019-02-04T09:27:15.774Z,101831.00
2019-02-04T09:29:46.015Z,101829.00
2019-02-04T09:32:16.634Z,101842.00
2019-02-04T09:34:47.614Z,101827.00
2019-02-04T09:37:18.051Z,101831.00
2019-02-04T09:39:48.600Z,101834.00
2019-02-04T09:42:19.177Z,101823.00
2019-02-04T09:44:49.656Z,101811.00
2019-02-04T09:47:20.184Z,101826.00
2019-02-04T09:49:50.599Z,101825.00
2019-02-04T09:52:21.038Z,101831.00
2019-02-04T09:54:51.558Z,101826.00
2019-02-04T09:57:21.904Z,101827.00
2019-02-04T09:59:52.742Z,101824.00
2019-02-04T10:02:23.510Z,101820.00
2019-02-04T10:04:53.881Z,101831.00
2019-02-04T10:07:24.310Z,101831.00
2019-02-04T10:09:54.882Z,101836.00
2019-02-04T10:12:25.768Z,101834.00
2019-02-04T10:14:56.775Z,101842.00
2019-02-04T10:17:27.243Z,101832.00
2019-02-04T10:19:57.684Z,101842.00
2019-02-04T10:22:28.046Z,101838.00
2019-02-04T10:24:58.544Z,101829.00
2019-02-04T10:27:29.735Z,101823.00
2019-02-04T10:30:04.966Z,101820.00
2019-02-04T10:32:35.660Z,101825.00
2019-02-04T10:35:16.598Z,101815.00
2019-02-04T10:37:39.144Z,101799.00
2019-02-04T10:40:16.564Z,101806.00
2019-02-04T10:42:47.397Z,101806.00
2019-02-04T10:45:18.445Z,101804.00
2019-02-04T10:47:49.193Z,101801.00
2019-02-04T10:50:24.964Z,101809.00
2019-02-04T10:52:55.493Z,101808.00
2019-02-04T10:55:26.143Z,101790.00
2019-02-04T10:57:56.670Z,101803.00
2019-02-04T11:00:30.231Z,101804.00
2019-02-04T11:03:01.153Z,101790.00
2019-02-04T11:05:36.103Z,101788.00
2019-02-04T11:08:07.879Z,101797.00
2019-02-04T11:10:38.793Z,101781.00
2019-02-04T11:13:11.903Z,101778.00
2019-02-04T11:15:43.557Z,101776.00
2019-02-04T11:18:18.664Z,101790.00
2019-02-04T11:20:57.802Z,101779.00
2019-02-04T11:23:21.274Z,101787.00
2019-02-04T11:25:52.052Z,101775.00
2019-02-04T11:28:22.918Z,101781.00
2019-02-04T11:30:59.447Z,101777.00
2019-02-04T11:33:30.089Z,101777.00
2019-02-04T11:36:00.504Z,101779.00
2019-02-04T11:38:31.055Z,101763.00
2019-02-04T11:41:01.630Z,101755.00
2019-02-04T11:43:32.341Z,101754.00
2019-02-04T11:46:03.086Z,101739.00
2019-02-04T11:48:33.580Z,101742.00
2019-02-04T11:51:09.858Z,101748.00
2019-02-04T11:53:36.897Z,101751.00
2019-02-04T11:56:07.496Z,101759.00
2019-02-04T11:58:37.925Z,101757.00
2019-02-04T12:01:09.883Z,101760.00
2019-02-04T12:03:40.551Z,101769.00
2019-02-04T12:06:11.107Z,101768.00
2019-02-04T12:08:41.871Z,101766.00
2019-02-04T12:11:15.390Z,101775.00
2019-02-04T12:13:46.029Z,101767.00
2019-02-04T12:16:16.690Z,101785.00
2019-02-04T12:18:47.603Z,101779.00
2019-02-04T12:21:21.528Z,101781.00
2019-02-04T12:23:50.715Z,101768.00
2019-02-04T12:26:21.717Z,101782.00
2019-02-04T12:28:52.222Z,101762.00
2019-02-04T12:31:26.653Z,101769.00
2019-02-04T12:33:57.587Z,101766.00
2019-02-04T12:36:28.078Z,101783.00
2019-02-04T12:38:58.521Z,101762.00
2019-02-04T12:41:29.169Z,101756.00
2019-02-04T12:44:00.442Z,101745.00
2019-02-04T12:46:31.624Z,101754.00
2019-02-04T12:49:02.568Z,101750.00
2019-02-04T12:51:34.042Z,101762.00
2019-02-04T12:54:05.345Z,101755.00
2019-02-04T12:56:36.035Z,101745.00
2019-02-04T12:59:06.743Z,101733.00
2019-02-04T13:01:37.528Z,101737.00
2019-02-04T13:04:08.103Z,101738.00
2019-02-04T13:06:38.558Z,101745.00
2019-02-04T13:09:10.696Z,101746.00
2019-02-04T13:11:41.089Z,101750.00
2019-02-04T13:14:11.931Z,101748.00
2019-02-04T13:16:42.483Z,101742.00
2019-02-04T13:19:13.009Z,101739.00
2019-02-04T13:21:45.558Z,101748.00
2019-02-04T13:24:15.584Z,101745.00
2019-02-04T13:26:46.081Z,101741.00
2019-02-04T13:29:16.737Z,101735.00
2019-02-04T13:31:46.983Z,101742.00
2019-02-04T13:34:17.426Z,101728.00
2019-02-04T13:36:48.389Z,101732.00
2019-02-04T13:39:19.164Z,101723.00
2019-02-04T13:41:49.615Z,101733.00
2019-02-04T13:44:20.725Z,101722.00
2019-02-04T13:46:53.198Z,101737.00
2019-02-04T13:49:24.239Z,101719.00
2019-02-04T13:51:57.398Z,101715.00
2019-02-04T13:54:27.403Z,101719.00
2019-02-04T13:56:57.899Z,101725.00
2019-02-04T13:59:30.632Z,101716.00
2019-02-04T14:02:01.967Z,101714.00
2019-02-04T14:04:32.809Z,101712.00
2019-02-04T14:07:03.619Z,101717.00
2019-02-04T14:09:34.337Z,101709.00
2019-02-04T14:12:05.236Z,101714.00
2019-02-04T14:14:35.909Z,101702.00
2019-02-04T14:17:07.229Z,101704.00
2019-02-04T14:19:38.657Z,101697.00
2019-02-04T14:22:09.757Z,101700.00
2019-02-04T14:24:40.603Z,101692.00
2019-02-04T14:27:12.460Z,101700.00
2019-02-04T14:29:43.033Z,101690.00
2019-02-04T14:32:13.717Z,101691.00
2019-02-04T14:34:44.845Z,101696.00
2019-02-04T14:37:15.661Z,101691.00
2019-02-04T14:39:46.895Z,101696.00
2019-02-04T14:42:18.730Z,101702.00
2019-02-04T14:45:00.972Z,101688.00
2019-02-04T14:47:42.683Z,101691.00
2019-02-04T14:51:07.614Z,101684.00
2019-02-04T14:54:02.318Z,101685.00
2019-02-04T14:56:48.306Z,101677.00
2019-02-04T14:59:25.706Z,101670.00
2019-02-04T15:02:34.412Z,101672.00
2019-02-04T15:05:55.553Z,101676.00
2019-02-04T15:09:06.736Z,101679.00
2019-02-04T15:12:20.635Z,101677.00
2019-02-04T15:15:19.501Z,101667.00
2019-02-04T15:18:26.003Z,101671.00
2019-02-04T15:21:20.014Z,101659.00
2019-02-04T15:24:12.439Z,101673.00
2019-02-04T15:27:25.822Z,101666.00
2019-02-04T15:30:24.828Z,101666.00
2019-02-04T15:33:39.100Z,101663.00
2019-02-04T15:36:20.089Z,101653.00
2019-02-04T15:39:24.422Z,101651.00
2019-02-04T15:42:35.685Z,101643.00
2019-02-04T15:45:19.133Z,101649.00
2019-02-04T15:47:54.112Z,101640.00
2019-02-04T15:51:03.362Z,101644.00
2019-02-04T15:53:35.141Z,101635.00
2019-02-04T15:56:06.923Z,101629.00
2019-02-04T15:58:37.808Z,101636.00
2019-02-04T16:01:08.565Z,101635.00
2019-02-04T16:03:39.062Z,101634.00
2019-02-04T16:06:09.896Z,101624.00
2019-02-04T16:08:40.332Z,101627.00
2019-02-04T16:11:11.160Z,101629.00
2019-02-04T16:13:41.468Z,101625.00
2019-02-04T16:16:11.671Z,101623.00
2019-02-04T16:18:41.885Z,101606.00
2019-02-04T16:21:12.080Z,101619.00
2019-02-04T16:23:42.806Z,101618.00
2019-02-04T16:26:15.190Z,101615.00
2019-02-04T16:28:45.051Z,101617.00
2019-02-04T16:31:15.430Z,101605.00
2019-02-04T16:33:48.330Z,101618.00
2019-02-04T16:36:18.564Z,101604.00
2019-02-04T16:38:48.941Z,101613.00
2019-02-04T16:41:19.212Z,101607.00
2019-02-04T16:43:50.850Z,101625.00
2019-02-04T16:46:21.366Z,101623.00
2019-02-04T16:48:51.983Z,101609.00
2019-02-04T16:51:25.227Z,101614.00
2019-02-04T16:53:56.175Z,101619.00
2019-02-04T16:56:27.378Z,101606.00
2019-02-04T16:58:57.729Z,101619.00
2019-02-04T17:01:28.204Z,101621.00
2019-02-04T17:03:59.584Z,101616.00
2019-02-04T17:06:30.117Z,101621.00
2019-02-04T17:09:02.285Z,101614.00
2019-02-04T17:11:32.727Z,101620.00
2019-02-04T17:14:03.200Z,101633.00
2019-02-04T17:16:33.926Z,101623.00
2019-02-04T17:19:04.814Z,101626.00
2019-02-04T17:21:35.269Z,101625.00
2019-02-04T17:24:05.956Z,101615.00
2019-02-04T17:26:36.442Z,101628.00
2019-02-04T17:29:06.825Z,101623.00
2019-02-04T17:31:37.176Z,101630.00
2019-02-04T17:34:07.539Z,101621.00
2019-02-04T17:36:37.952Z,101616.00
2019-02-04T17:39:08.993Z,101609.00
2019-02-04T17:41:39.420Z,101609.00
2019-02-04T17:44:10.095Z,101597.00
2019-02-04T17:46:40.500Z,101603.00
2019-02-04T17:49:13.943Z,101604.00
2019-02-04T17:51:44.233Z,101601.00
2019-02-04T17:54:14.667Z,101602.00
2019-02-04T17:56:45.294Z,101590.00
2019-02-04T17:59:16.009Z,101597.00
2019-02-04T18:01:46.600Z,101594.00
2019-02-04T18:04:16.925Z,101598.00
2019-02-04T18:06:47.618Z,101598.00
2019-02-04T18:09:18.084Z,101613.00
2019-02-04T18:11:48.615Z,101609.00
2019-02-04T18:14:19.387Z,101604.00
2019-02-04T18:16:49.943Z,101595.00
2019-02-04T18:19:20.342Z,101587.00
2019-02-04T18:21:50.793Z,101604.00
2019-02-04T18:24:21.157Z,101587.00
2019-02-04T18:26:51.555Z,101586.00
2019-02-04T18:29:21.941Z,101590.00
2019-02-04T18:31:52.352Z,101578.00
2019-02-04T18:34:22.831Z,101591.00
2019-02-04T18:36:53.333Z,101593.00
2019-02-04T18:39:27.766Z,101589.00
2019-02-04T18:41:58.096Z,101588.00
2019-02-04T18:44:28.479Z,101583.00
2019-02-04T18:46:58.873Z,101591.00
2019-02-04T18:49:29.365Z,101569.00
2019-02-04T18:51:59.735Z,101588.00
2019-02-04T18:54:30.714Z,101570.00
2019-02-04T18:57:01.092Z,101579.00
2019-02-04T18:59:31.505Z,101572.00
2019-02-04T19:02:01.960Z,101573.00
2019-02-04T19:04:32.364Z,101580.00
2019-02-04T19:07:02.937Z,101582.00
2019-02-04T19:09:34.243Z,101591.00
2019-02-04T19:12:04.817Z,101579.00
2019-02-04T19:14:35.750Z,101581.00
2019-02-04T19:17:07.074Z,101574.00
2019-02-04T19:19:37.486Z,101569.00
2019-02-04T19:22:09.143Z,101575.00
2019-02-04T19:24:42.224Z,101575.00
2019-02-04T19:27:14.031Z,101569.00
2019-02-04T19:29:45.809Z,101567.00
2019-02-04T19:32:16.414Z,101558.00
2019-02-04T19:34:46.878Z,101577.00
2019-02-04T19:37:17.580Z,101568.00
2019-02-04T19:39:48.587Z,101563.00
2019-02-04T19:42:19.069Z,101551.00
2019-02-04T19:44:50.553Z,101565.00
2019-02-04T19:47:20.981Z,101542.00
2019-02-04T19:49:51.411Z,101553.00
2019-02-04T19:52:21.864Z,101538.00
2019-02-04T19:54:52.247Z,101554.00
2019-02-04T19:57:22.679Z,101541.00
2019-02-04T19:59:53.239Z,101550.00
2019-02-04T20:02:23.654Z,101538.00
2019-02-04T20:04:55.331Z,101540.00
2019-02-04T20:07:26.233Z,101527.00
2019-02-04T20:09:56.795Z,101533.00
2019-02-04T20:12:30.013Z,101532.00
2019-02-04T20:15:00.605Z,101528.00
2019-02-04T20:17:31.069Z,101516.00
2019-02-04T20:20:02.178Z,101527.00
2019-02-04T20:22:32.691Z,101535.00
2019-02-04T20:25:03.128Z,101541.00
2019-02-04T20:27:33.493Z,101535.00
2019-02-04T20:30:04.724Z,101527.00
2019-02-04T20:32:35.150Z,101525.00
2019-02-04T20:35:06.247Z,101524.00
2019-02-04T20:37:36.679Z,101517.00
2019-02-04T20:40:08.690Z,101516.00
2019-02-04T20:42:39.099Z,101499.00
2019-02-04T20:45:10.039Z,101504.00
2019-02-04T20:47:42.197Z,101506.00
2019-02-04T20:50:19.406Z,101495.00
2019-02-04T20:52:49.945Z,101514.00
2019-02-04T20:55:20.421Z,101531.00
2019-02-04T20:57:50.920Z,101522.00
2019-02-04T21:00:23.613Z,101525.00
2019-02-04T21:02:54.057Z,101528.00
2019-02-04T21:05:24.709Z,101528.00
2019-02-04T21:07:55.328Z,101540.00
2019-02-04T21:10:26.208Z,101538.00
2019-02-04T21:12:57.575Z,101542.00
2019-02-04T21:15:28.252Z,101539.00
2019-02-04T21:17:58.883Z,101551.00
2019-02-04T21:20:29.355Z,101556.00
2019-02-04T21:22:59.750Z,101553.00
2019-02-04T21:25:30.141Z,101559.00
2019-02-04T21:28:00.597Z,101565.00
2019-02-04T21:30:37.815Z,101566.00
2019-02-04T21:33:08.636Z,101558.00
2019-02-04T21:35:39.052Z,101560.00
2019-02-04T21:38:09.597Z,101566.00
2019-02-04T21:40:40.061Z,101542.00
2019-02-04T21:43:10.415Z,101558.00
2019-02-04T21:45:40.851Z,101558.00
2019-02-04T21:48:11.287Z,101560.00
2019-02-04T21:50:41.733Z,101559.00
2019-02-04T21:53:12.454Z,101552.00
2019-02-04T21:55:42.893Z,101564.00
2019-02-04T21:58:13.409Z,101565.00
2019-02-04T22:00:43.863Z,101551.00
2019-02-04T22:03:14.397Z,101559.00
2019-02-04T22:05:45.345Z,101558.00
2019-02-04T22:08:15.842Z,101562.00
2019-02-04T22:10:46.797Z,101558.00
2019-02-04T22:13:17.421Z,101550.00
2019-02-04T22:15:48.395Z,101556.00
2019-02-04T22:18:18.866Z,101552.00
2019-02-04T22:20:50.961Z,101545.00
2019-02-04T22:23:21.339Z,101553.00
2019-02-04T22:25:52.310Z,101552.00
2019-02-04T22:28:22.765Z,101545.00
2019-02-04T22:30:53.456Z,101545.00
2019-02-04T22:33:23.907Z,101549.00
2019-02-04T22:35:54.307Z,101555.00
2019-02-04T22:38:24.768Z,101557.00
2019-02-04T22:40:55.122Z,101547.00
2019-02-04T22:43:25.616Z,101545.00
2019-02-04T22:45:56.016Z,101553.00
2019-02-04T22:48:26.761Z,101567.00
2019-02-04T22:50:57.072Z,101565.00
2019-02-04T22:53:30.488Z,101563.00
2019-02-04T22:56:00.844Z,101572.00
2019-02-04T22:58:31.145Z,101551.00
2019-02-04T23:01:37.266Z,101565.00
2019-02-04T23:04:08.509Z,101562.00
2019-02-04T23:06:38.836Z,101571.00
2019-02-04T23:09:13.524Z,101571.00
2019-02-04T23:11:44.495Z,101559.00
2019-02-04T23:14:15.179Z,101566.00
2019-02-04T23:16:45.681Z,101559.00
2019-02-04T23:19:23.514Z,101548.00
2019-02-04T23:21:54.048Z,101559.00
2019-02-04T23:24:24.566Z,101564.00
2019-02-04T23:26:54.891Z,101554.00
2019-02-04T23:29:25.331Z,101552.00
2019-02-04T23:31:56.182Z,101563.00
2019-02-04T23:34:26.711Z,101551.00
2019-02-04T23:36:57.094Z,101516.00
2019-02-04T23:39:27.402Z,101544.00
2019-02-04T23:41:58.442Z,101548.00
2019-02-04T23:44:29.104Z,101550.00
2019-02-04T23:46:59.596Z,101557.00
2019-02-04T23:49:30.178Z,101563.00
2019-02-04T23:52:00.500Z,101558.00
2019-02-04T23:54:30.884Z,101549.00
2019-02-04T23:57:01.267Z,101557.00
2019-02-04T23:59:31.880Z,101543.00
